createdAt,value
2022-08-05T00:02:14.737Z,15.58
2022-08-05T00:04:55.542Z,16.32
2022-08-05T00:07:58.807Z,15.65
2022-08-05T00:09:57.749Z,15.18
2022-08-05T00:12:31.424Z,15.13
2022-08-05T00:15:54.007Z,19.15
2022-08-05T00:17:39.830Z,17.23
2022-08-05T00:20:14.487Z,22.32
2022-08-05T00:22:59.603Z,28.05
2022-08-05T00:25:23.328Z,26.42
2022-08-05T00:27:56.093Z,26.40
2022-08-05T00:30:32.039Z,29.00
2022-08-05T00:33:03.932Z,35.03
2022-08-05T00:35:37.534Z,34.98
2022-08-05T00:38:11.926Z,25.82
2022-08-05T00:40:54.387Z,39.05
2022-08-05T00:43:27.243Z,32.17
2022-08-05T00:46:02.066Z,29.57
2022-08-05T00:48:35.968Z,31.93
2022-08-05T00:51:50.235Z,33.13
2022-08-05T00:54:02.319Z,33.88
2022-08-05T00:56:20.474Z,33.90
2022-08-05T00:58:54.965Z,28.25
2022-08-05T01:01:48.246Z,30.97
2022-08-05T01:04:13.770Z,32.65
2022-08-05T01:06:40.732Z,31.00
2022-08-05T01:09:15.512Z,32.78
2022-08-05T01:11:52.516Z,31.85
2022-08-05T01:14:43.134Z,32.53
2022-08-05T01:17:32.221Z,35.08
2022-08-05T01:20:33.879Z,35.88
2022-08-05T01:23:43.004Z,31.90
2022-08-05T01:26:28.089Z,35.75
2022-08-05T01:29:23.031Z,34.75
2022-08-05T01:31:58.541Z,39.48
2022-08-05T01:34:39.884Z,38.60
2022-08-05T01:37:32.724Z,44.93
2022-08-05T01:40:08.154Z,44.45
2022-08-05T01:42:43.562Z,39.70
2022-08-05T01:45:18.136Z,40.88
2022-08-05T01:47:54.546Z,36.88
2022-08-05T01:50:38.123Z,38.92
2022-08-05T01:53:17.160Z,40.15
2022-08-05T01:55:52.864Z,39.88
2022-08-05T01:58:41.036Z,41.77
2022-08-05T02:01:04.923Z,40.50
2022-08-05T02:03:45.299Z,39.98
2022-08-05T02:06:38.431Z,41.45
2022-08-05T02:08:58.327Z,36.58
2022-08-05T02:11:33.184Z,34.88
2022-08-05T02:14:13.642Z,33.60
2022-08-05T02:16:55.715Z,37.65
2022-08-05T02:19:40.587Z,40.73
2022-08-05T02:22:26.618Z,43.13
2022-08-05T02:25:06.589Z,41.42
2022-08-05T02:27:58.927Z,39.70
2022-08-05T02:30:17.037Z,41.70
2022-08-05T02:32:52.855Z,43.25
2022-08-05T02:35:37.454Z,39.90
2022-08-05T02:38:03.215Z,44.27
2022-08-05T02:40:36.612Z,37.90
2022-08-05T02:43:09.547Z,33.13
2022-08-05T02:45:52.519Z,34.80
2022-08-05T02:48:19.764Z,34.18
2022-08-05T02:50:54.939Z,31.05
2022-08-05T02:56:02.904Z,33.98
2022-08-05T02:58:43.748Z,32.53
2022-08-05T03:01:27.318Z,30.75
2022-08-05T03:06:54.482Z,31.73
2022-08-05T03:09:17.843Z,34.95
2022-08-05T03:11:55.421Z,29.57
2022-08-05T03:14:26.335Z,29.23
2022-08-05T03:16:59.287Z,27.93
2022-08-05T03:19:34.513Z,31.25
2022-08-05T03:22:16.760Z,31.95
2022-08-05T03:24:42.495Z,25.08
2022-08-05T03:27:17.281Z,26.15
2022-08-05T03:30:08.049Z,29.67
2022-08-05T03:32:30.924Z,28.83
2022-08-05T03:34:59.896Z,37.33
2022-08-05T03:40:11.989Z,34.43
2022-08-05T03:42:52.450Z,36.40
2022-08-05T03:45:21.386Z,31.07
2022-08-05T03:47:56.856Z,30.43
2022-08-05T03:50:35.870Z,27.17
2022-08-05T03:55:51.843Z,28.87
2022-08-05T03:56:10.395Z,30.20
2022-08-05T03:58:38.108Z,27.07
2022-08-05T04:01:13.448Z,24.70
2022-08-05T04:04:10.190Z,26.42
2022-08-05T04:06:22.518Z,27.85
2022-08-05T04:08:57.462Z,25.88
2022-08-05T04:11:47.387Z,33.13
2022-08-05T04:14:07.424Z,35.68
2022-08-05T04:16:40.727Z,36.15
2022-08-05T04:19:14.859Z,34.50
2022-08-05T04:22:10.163Z,38.67
2022-08-05T04:24:23.671Z,36.65
2022-08-05T04:26:58.331Z,35.63
2022-08-05T04:29:32.239Z,33.28
2022-08-05T04:32:05.838Z,35.55
2022-08-05T04:34:42.898Z,35.85
2022-08-05T04:37:14.850Z,30.90
2022-08-05T04:39:52.946Z,29.35
2022-08-05T04:42:25.428Z,36.50
2022-08-05T04:44:58.483Z,26.90
2022-08-05T04:47:38.620Z,29.18
2022-08-05T04:50:11.614Z,31.42
2022-08-05T04:52:42.341Z,30.25
2022-08-05T04:55:17.189Z,29.27
2022-08-05T04:57:54.261Z,31.52
2022-08-05T05:00:26.177Z,31.93
2022-08-05T05:03:03.670Z,30.77
2022-08-05T05:05:34.935Z,28.65
2022-08-05T05:08:14.436Z,26.25
2022-08-05T05:10:56.303Z,23.07
2022-08-05T05:13:22.703Z,15.32
2022-08-05T05:15:59.523Z,16.50
2022-08-05T05:18:33.731Z,16.70
2022-08-05T05:21:05.641Z,19.77
2022-08-05T05:24:03.721Z,17.52
2022-08-05T05:26:13.468Z,22.02
2022-08-05T05:28:49.380Z,20.62
2022-08-05T05:31:22.391Z,13.32
2022-08-05T05:33:59.663Z,14.30
2022-08-05T05:36:32.480Z,15.63
2022-08-05T05:39:10.956Z,18.05
2022-08-05T05:41:41.936Z,18.48
2022-08-05T05:44:36.897Z,15.72
2022-08-05T05:46:49.611Z,18.40
2022-08-05T05:49:24.096Z,17.00
2022-08-05T05:51:57.588Z,15.13
2022-08-05T05:54:49.723Z,16.17
2022-08-05T05:57:05.271Z,22.67
2022-08-05T05:59:40.202Z,22.82
2022-08-05T06:02:13.410Z,25.95
2022-08-05T06:04:49.177Z,28.15
2022-08-05T06:07:22.391Z,27.45
2022-08-05T06:10:04.322Z,23.30
2022-08-05T06:12:30.309Z,31.45
2022-08-05T06:15:04.554Z,23.27
2022-08-05T06:17:52.959Z,21.07
2022-08-05T06:20:21.362Z,23.10
2022-08-05T06:22:49.227Z,27.22
2022-08-05T06:25:24.598Z,25.45
2022-08-05T06:28:12.353Z,16.15
2022-08-05T06:30:32.385Z,18.57
2022-08-05T06:33:10.051Z,14.75
2022-08-05T06:36:04.164Z,16.02
2022-08-05T06:38:16.133Z,13.95
2022-08-05T06:40:49.461Z,17.53
2022-08-05T06:43:58.875Z,14.93
2022-08-05T06:46:04.106Z,15.50
2022-08-05T06:48:53.641Z,15.32
2022-08-05T06:51:09.365Z,16.10
2022-08-05T06:53:41.494Z,14.13
2022-08-05T06:56:25.905Z,13.98
2022-08-05T06:58:51.168Z,15.00
2022-08-05T07:01:27.688Z,13.90
2022-08-05T07:03:58.643Z,15.85
2022-08-05T07:06:32.844Z,9.90
2022-08-05T07:09:05.956Z,12.60
2022-08-05T07:11:39.780Z,15.63
2022-08-05T07:17:58.903Z,14.07
2022-08-05T07:20:16.857Z,13.45
2022-08-05T07:22:15.761Z,10.55
2022-08-05T07:24:52.730Z,9.98
2022-08-05T07:27:22.672Z,12.47
2022-08-05T07:30:23.888Z,13.32
2022-08-05T07:32:40.297Z,13.10
2022-08-05T07:36:02.310Z,10.55
2022-08-05T07:37:51.245Z,8.58
2022-08-05T07:40:32.288Z,15.70
2022-08-05T07:43:04.757Z,10.45
2022-08-05T07:45:56.628Z,9.65
2022-08-05T07:48:10.068Z,10.80
2022-08-05T07:50:43.206Z,9.45
2022-08-05T07:53:17.799Z,11.78
2022-08-05T07:56:06.166Z,9.18
2022-08-05T07:58:57.649Z,9.70
2022-08-05T08:01:01.989Z,9.85
2022-08-05T08:03:44.401Z,11.68
2022-08-05T08:06:11.687Z,9.68
2022-08-05T08:08:44.551Z,13.70
2022-08-05T08:11:17.921Z,8.60
2022-08-05T08:14:00.599Z,8.40
2022-08-05T08:16:34.928Z,10.20
2022-08-05T08:19:02.994Z,7.33
2022-08-05T08:21:36.650Z,10.03
2022-08-05T08:24:14.142Z,12.63
2022-08-05T08:26:46.035Z,13.38
2022-08-05T08:30:03.367Z,8.13
2022-08-05T08:31:54.211Z,8.90
2022-08-05T08:34:30.569Z,12.33
2022-08-05T08:37:05.114Z,8.78
2022-08-05T08:39:38.242Z,10.90
2022-08-05T08:42:34.229Z,9.63
2022-08-05T08:45:23.123Z,12.07
2022-08-05T08:48:06.846Z,10.85
2022-08-05T08:50:06.142Z,14.00
2022-08-05T08:52:38.354Z,11.20
2022-08-05T08:55:13.128Z,17.05
2022-08-05T08:57:58.394Z,13.18
2022-08-05T09:00:23.813Z,13.90
2022-08-05T09:02:59.480Z,12.43
2022-08-05T09:05:38.847Z,11.38
2022-08-05T09:08:09.698Z,12.80
2022-08-05T09:10:46.765Z,15.13
2022-08-05T09:13:20.342Z,16.05
2022-08-05T09:15:55.322Z,20.08
2022-08-05T09:18:28.280Z,14.83
2022-08-05T09:21:03.214Z,11.38
2022-08-05T09:23:43.588Z,14.23
2022-08-05T09:26:20.555Z,15.95
2022-08-05T09:28:57.368Z,15.05
2022-08-05T09:32:40.300Z,16.67
2022-08-05T09:34:10.403Z,17.12
2022-08-05T09:36:56.412Z,15.50
2022-08-05T09:39:41.470Z,11.22
2022-08-05T09:42:04.931Z,11.45
2022-08-05T09:44:42.665Z,8.10
2022-08-05T09:47:21.944Z,8.73
2022-08-05T09:50:01.123Z,8.25
2022-08-05T09:52:45.122Z,7.08
2022-08-05T09:55:58.643Z,8.15
2022-08-05T09:57:48.565Z,7.00
2022-08-05T10:00:25.224Z,7.25
2022-08-05T10:02:59.170Z,9.10
2022-08-05T10:08:35.537Z,6.80
2022-08-05T10:10:53.851Z,8.70
2022-08-05T10:13:45.515Z,9.50
2022-08-05T10:16:33.838Z,8.03
2022-08-05T10:19:09.509Z,7.70
2022-08-05T10:21:41.505Z,8.95
2022-08-05T10:24:15.253Z,9.38
2022-08-05T10:26:52.884Z,11.55
2022-08-05T10:30:06.387Z,11.65
2022-08-05T10:32:52.053Z,6.95
2022-08-05T10:34:36.680Z,9.28
2022-08-05T10:37:13.365Z,11.05
2022-08-05T10:39:59.274Z,10.48
2022-08-05T10:42:33.771Z,15.15
2022-08-05T10:45:00.615Z,14.45
2022-08-05T10:47:37.660Z,8.40
2022-08-05T10:50:32.108Z,8.18
2022-08-05T10:52:55.029Z,10.82
2022-08-05T10:55:38.556Z,8.25
2022-08-05T10:58:12.033Z,10.82
2022-08-05T11:00:55.311Z,11.15
2022-08-05T11:03:27.076Z,11.38
2022-08-05T11:06:15.007Z,10.40
2022-08-05T11:09:31.930Z,10.28
2022-08-05T11:11:58.375Z,11.20
2022-08-05T11:15:00.981Z,7.90
2022-08-05T11:18:07.687Z,11.25
2022-08-05T11:20:18.410Z,9.83
2022-08-05T11:22:53.952Z,11.00
2022-08-05T11:26:05.070Z,11.48
2022-08-05T11:28:18.058Z,10.50
2022-08-05T11:31:05.866Z,11.55
2022-08-05T11:33:48.958Z,10.10
2022-08-05T11:36:34.654Z,15.30
2022-08-05T11:39:00.198Z,9.98
2022-08-05T11:42:00.649Z,13.95
2022-08-05T11:44:40.373Z,14.80
2022-08-05T11:47:09.970Z,15.78
2022-08-05T11:49:28.126Z,12.78
2022-08-05T11:52:08.429Z,17.00
2022-08-05T11:54:38.382Z,16.05
2022-08-05T11:57:24.910Z,16.42
2022-08-05T11:59:50.398Z,12.45
2022-08-05T12:02:31.603Z,11.53
2022-08-05T12:05:06.850Z,17.00
2022-08-05T12:08:03.360Z,15.35
2022-08-05T12:10:15.326Z,16.50
2022-08-05T12:12:59.942Z,18.73
2022-08-05T12:15:35.920Z,18.02
2022-08-05T12:18:09.928Z,14.70
2022-08-05T12:20:35.111Z,13.13
2022-08-05T12:23:14.305Z,14.10
2022-08-05T12:25:56.446Z,12.80
2022-08-05T12:28:39.955Z,11.88
2022-08-05T12:31:12.880Z,19.80
2022-08-05T12:33:48.426Z,16.30
2022-08-05T12:36:21.757Z,14.58
2022-08-05T12:38:57.655Z,17.52
2022-08-05T12:41:36.245Z,12.58
2022-08-05T12:44:14.213Z,11.60
2022-08-05T12:46:54.057Z,14.18
2022-08-05T12:49:27.155Z,10.38
2022-08-05T12:52:13.649Z,11.03
2022-08-05T12:54:38.239Z,10.00
2022-08-05T12:57:13.243Z,12.82
2022-08-05T13:01:57.369Z,9.75
2022-08-05T13:02:31.519Z,13.13
2022-08-05T13:05:08.142Z,12.28
2022-08-05T13:08:01.144Z,14.65
2022-08-05T13:10:20.459Z,9.48
2022-08-05T13:12:58.044Z,11.80
2022-08-05T13:15:41.574Z,9.00
2022-08-05T13:18:08.545Z,12.13
2022-08-05T13:20:41.470Z,11.28
2022-08-05T13:23:18.113Z,12.23
2022-08-05T13:25:59.228Z,14.83
2022-08-05T13:28:26.433Z,14.20
2022-08-05T13:30:59.388Z,11.90
2022-08-05T13:34:21.105Z,12.70
2022-08-05T13:36:09.331Z,9.55
2022-08-05T13:38:43.317Z,10.23
2022-08-05T13:41:16.799Z,12.60
2022-08-05T13:43:54.754Z,10.50
2022-08-05T13:46:43.836Z,10.78
2022-08-05T13:49:01.057Z,10.72
2022-08-05T13:51:40.090Z,9.80
2022-08-05T13:54:12.710Z,13.58
2022-08-05T13:56:50.876Z,11.85
2022-08-05T13:59:27.226Z,10.85
2022-08-05T14:02:01.000Z,12.13
2022-08-05T14:05:00.507Z,11.80
2022-08-05T14:07:59.964Z,10.88
2022-08-05T14:10:28.124Z,11.55
2022-08-05T14:13:01.724Z,10.20
2022-08-05T14:16:07.547Z,12.37
2022-08-05T14:18:15.063Z,11.28
2022-08-05T14:20:46.834Z,12.30
2022-08-05T14:23:25.803Z,10.70
2022-08-05T14:25:58.566Z,9.83
2022-08-05T14:28:32.340Z,10.63
2022-08-05T14:31:05.244Z,11.12
2022-08-05T14:34:00.027Z,14.25
2022-08-05T14:36:15.453Z,12.88
2022-08-05T14:38:48.304Z,17.87
2022-08-05T14:41:21.210Z,13.40
2022-08-05T14:44:02.194Z,15.03
2022-08-05T14:46:31.680Z,10.32
2022-08-05T14:49:08.054Z,13.38
2022-08-05T14:51:43.234Z,13.32
2022-08-05T14:54:29.989Z,11.55
2022-08-05T14:56:54.823Z,10.98
2022-08-05T14:59:29.539Z,11.88
2022-08-05T15:02:01.717Z,13.20
2022-08-05T15:04:36.487Z,11.30
2022-08-05T15:07:10.945Z,10.78
2022-08-05T15:09:51.658Z,13.00
2022-08-05T15:12:21.163Z,14.03
2022-08-05T15:14:56.140Z,15.00
2022-08-05T15:17:46.685Z,11.70
2022-08-05T15:20:03.700Z,15.30
2022-08-05T15:22:36.950Z,14.90
2022-08-05T15:25:14.153Z,14.47
2022-08-05T15:27:52.326Z,12.07
2022-08-05T15:30:20.730Z,11.18
2022-08-05T15:32:56.850Z,11.38
2022-08-05T15:35:36.175Z,11.95
2022-08-05T15:38:33.519Z,13.62
2022-08-05T15:41:00.919Z,13.40
2022-08-05T15:43:20.341Z,13.28
2022-08-05T15:45:59.804Z,16.30
2022-08-05T15:48:23.817Z,17.70
2022-08-05T15:50:57.059Z,18.10
2022-08-05T15:53:38.383Z,15.08
2022-08-05T15:56:11.579Z,15.35
2022-08-05T15:58:41.023Z,13.38
2022-08-05T16:01:17.860Z,10.55
2022-08-05T16:03:51.044Z,11.93
2022-08-05T16:06:24.759Z,13.15
2022-08-05T16:08:58.018Z,12.07
2022-08-05T16:11:43.036Z,15.13
2022-08-05T16:14:06.648Z,13.20
2022-08-05T16:16:39.617Z,17.52
2022-08-05T16:19:18.812Z,22.02
2022-08-05T16:22:01.087Z,20.52
2022-08-05T16:24:40.153Z,22.50
2022-08-05T16:27:02.352Z,19.73
2022-08-05T16:29:37.478Z,20.72
2022-08-05T16:32:10.671Z,20.48
2022-08-05T16:34:43.595Z,22.30
2022-08-05T16:38:02.655Z,25.55
2022-08-05T16:40:05.155Z,18.87
2022-08-05T16:42:27.522Z,16.70
2022-08-05T16:45:00.194Z,15.50
2022-08-05T16:47:36.329Z,16.12
2022-08-05T16:50:10.511Z,13.32
2022-08-05T16:52:45.944Z,11.48
2022-08-05T16:55:19.777Z,15.53
2022-08-05T16:58:01.677Z,26.80
2022-08-05T17:00:34.084Z,28.42
2022-08-05T17:03:03.778Z,10.98
2022-08-05T17:05:38.178Z,13.00
2022-08-05T17:08:11.479Z,8.00
2022-08-05T17:10:46.290Z,12.43
2022-08-05T17:13:21.608Z,11.90
2022-08-05T17:16:02.797Z,13.75
2022-08-05T17:18:29.985Z,18.62
2022-08-05T17:21:02.815Z,14.53
2022-08-05T17:24:03.122Z,13.50
2022-08-05T17:26:12.164Z,10.18
2022-08-05T17:28:47.270Z,10.43
2022-08-05T17:31:24.801Z,9.93
2022-08-05T17:33:57.736Z,11.73
2022-08-05T17:36:32.440Z,13.95
2022-08-05T17:39:05.728Z,10.75
2022-08-05T17:42:18.393Z,9.70
2022-08-05T17:44:16.477Z,12.88
2022-08-05T17:46:49.334Z,11.78
2022-08-05T17:49:23.800Z,12.50
2022-08-05T17:51:57.397Z,9.65
2022-08-05T17:54:31.813Z,12.18
2022-08-05T17:57:05.720Z,10.78
2022-08-05T17:59:40.319Z,10.00
2022-08-05T18:02:13.401Z,12.10
2022-08-05T18:04:51.183Z,8.00
2022-08-05T18:07:22.479Z,9.38
2022-08-05T18:09:59.663Z,15.28
2022-08-05T18:12:31.875Z,10.98
2022-08-05T18:15:08.857Z,9.45
2022-08-05T18:18:00.830Z,10.50
2022-08-05T18:20:16.517Z,9.30
2022-08-05T18:22:54.560Z,10.88
2022-08-05T18:25:25.039Z,9.28
2022-08-05T18:27:58.097Z,8.90
2022-08-05T18:30:30.879Z,8.45
2022-08-05T18:33:04.860Z,8.53
2022-08-05T18:35:59.738Z,10.35
2022-08-05T18:38:12.950Z,10.60
2022-08-05T18:41:56.551Z,10.93
2022-08-05T18:43:23.163Z,10.72
2022-08-05T18:48:32.957Z,13.38
2022-08-05T18:52:05.827Z,10.32
2022-08-05T18:53:57.662Z,9.93
2022-08-05T18:56:30.485Z,9.75
2022-08-05T18:59:41.900Z,9.23
2022-08-05T19:01:47.435Z,10.28
2022-08-05T19:04:14.200Z,13.98
2022-08-05T19:06:50.033Z,9.43
2022-08-05T19:09:22.971Z,10.48
2022-08-05T19:12:00.494Z,9.40
2022-08-05T19:14:53.551Z,10.85
2022-08-05T19:17:09.290Z,13.45
2022-08-05T19:19:46.896Z,9.45
2022-08-05T19:22:19.238Z,9.63
2022-08-05T19:24:56.717Z,8.03
2022-08-05T19:27:30.795Z,8.53
2022-08-05T19:30:05.446Z,9.78
2022-08-05T19:32:39.636Z,7.90
2022-08-05T19:35:13.289Z,9.78
2022-08-05T19:38:05.974Z,10.88
2022-08-05T19:40:24.285Z,10.35
2022-08-05T19:43:04.510Z,16.57
2022-08-05T19:45:33.285Z,12.85
2022-08-05T19:48:07.479Z,11.00
2022-08-05T19:50:41.990Z,10.20
2022-08-05T19:53:14.770Z,9.80
2022-08-05T19:56:14.452Z,8.25
2022-08-05T19:58:29.272Z,8.98
2022-08-05T20:00:57.765Z,9.28
2022-08-05T20:03:37.965Z,9.90
2022-08-05T20:06:11.692Z,10.23
2022-08-05T20:08:40.960Z,8.80
2022-08-05T20:11:18.103Z,7.95
2022-08-05T20:13:58.940Z,8.88
2022-08-05T20:16:25.017Z,8.83
2022-08-05T20:18:58.049Z,8.33
2022-08-05T20:21:32.613Z,9.08
2022-08-05T20:24:06.397Z,11.97
2022-08-05T20:26:39.508Z,10.45
2022-08-05T20:29:27.644Z,10.13
2022-08-05T20:31:53.464Z,8.85
2022-08-05T20:34:23.041Z,8.58
2022-08-05T20:36:56.233Z,9.53
2022-08-05T20:39:35.757Z,9.45
2022-08-05T20:42:03.452Z,9.73
2022-08-05T20:44:38.207Z,12.53
2022-08-05T20:47:11.023Z,9.00
2022-08-05T20:49:43.882Z,9.63
2022-08-05T20:52:17.772Z,9.23
2022-08-05T20:55:55.377Z,10.80
2022-08-05T20:57:42.641Z,11.53
2022-08-05T21:00:19.519Z,13.05
2022-08-05T21:02:39.486Z,11.75
2022-08-05T21:05:09.719Z,10.93
2022-08-05T21:07:50.711Z,12.33
2022-08-05T21:10:17.655Z,9.18
2022-08-05T21:12:57.993Z,9.98
2022-08-05T21:15:25.327Z,9.70
2022-08-05T21:17:59.823Z,11.60
2022-08-05T21:20:34.205Z,10.28
2022-08-05T21:23:07.748Z,8.75
2022-08-05T21:25:42.237Z,11.08
2022-08-05T21:28:18.733Z,9.28
2022-08-05T21:30:49.464Z,9.90
2022-08-05T21:33:23.568Z,9.03
2022-08-05T21:38:30.539Z,12.47
2022-08-05T21:41:03.586Z,24.80
2022-08-05T21:43:41.743Z,13.22
2022-08-05T21:46:12.169Z,12.80
2022-08-05T21:48:45.179Z,8.45
2022-08-05T21:52:16.457Z,10.88
2022-08-05T21:53:59.542Z,14.83
2022-08-05T21:56:26.813Z,8.85
2022-08-05T21:58:59.551Z,10.20
2022-08-05T22:01:35.499Z,9.55
2022-08-05T22:04:13.368Z,9.88
2022-08-05T22:06:50.551Z,9.75
2022-08-05T22:09:21.037Z,9.73
2022-08-05T22:11:53.197Z,8.88
2022-08-05T22:14:35.011Z,9.35
2022-08-05T22:17:04.896Z,8.58
2022-08-05T22:20:02.998Z,10.05
2022-08-05T22:22:12.901Z,7.67
2022-08-05T22:25:05.783Z,10.20
2022-08-05T22:28:08.742Z,12.23
2022-08-05T22:30:22.284Z,168.07
2022-08-05T22:32:55.140Z,168.80
2022-08-05T22:35:31.061Z,137.90
2022-08-05T22:38:03.135Z,84.72
2022-08-05T22:40:37.047Z,39.42
2022-08-05T22:45:44.512Z,13.80
2022-08-05T22:48:21.980Z,14.18
2022-08-05T22:50:56.286Z,11.80
2022-08-05T22:53:26.997Z,13.28
2022-08-05T22:56:01.425Z,13.93
2022-08-05T22:58:34.497Z,12.35
2022-08-05T23:01:09.027Z,13.85
2022-08-05T23:03:58.757Z,14.00
2022-08-05T23:06:17.058Z,9.90
2022-08-05T23:08:52.303Z,8.53
2022-08-05T23:11:25.221Z,8.65
2022-08-05T23:13:58.378Z,9.33
2022-08-05T23:19:26.117Z,10.40
2022-08-05T23:21:58.193Z,9.33
2022-08-05T23:24:31.744Z,9.93
2022-08-05T23:27:04.958Z,10.47
2022-08-05T23:29:37.842Z,8.83
2022-08-05T23:32:11.037Z,11.95
2022-08-05T23:34:43.998Z,9.45
2022-08-05T23:37:16.591Z,8.35
2022-08-05T23:39:54.192Z,9.50
2022-08-05T23:42:29.301Z,9.05
2022-08-05T23:44:59.387Z,10.32
2022-08-05T23:47:33.534Z,14.43
2022-08-05T23:50:09.501Z,8.93
2022-08-05T23:52:49.511Z,9.08
2022-08-05T23:55:16.769Z,12.20
2022-08-05T23:57:51.204Z,9.08
